Forside
METAR-TAF:

METAR-TAF

Lufthavne :

Waseca Municipal Airport

Waseca, Minnesota, USA

Breddekreds: 44-04-24N, længdekreds: 093-33-11W, højde: 343 m

Aktuelle vejr

Denne rapport blev lavet for 18 minutter siden, kl. 06:55 UTC
Vind 4 kt fra sydsydvest
Temperatur -1°C
Fugtighed 86%
Tryk 1013 hPa
Sigt: 16.1 km
skyfri

METAR: KACQ 290655Z AUTO 21004KT 10SM CLR M01/M03 A2992 RMK AO2

Tid: 01:13 (07:13 UTC)


TAF: fraværende

Vejrobservationer og prognoser fra mere end 4000 lufthavne (METAR og TAF).

De gule og røde prikker repræsenterer de meteorologiske stationer.

Flyt musen over at se navnet på stationen.

Så klik over at se vejr observationer og prognoser.

At skifte det kort: Klik på de grønne knapper med et sort kors for at zoome ind; på den grønne knap med en bindestreg for at zoome ud; eller på de grønne pile for tilstødende kort.


METAR-TAF: